Circle Line Brooklyn — WDE8160 — position and weather

sailwx.info

Track history (hours):
 
Tides and Currents Weather Stations Pressure Air Temp Water Temp Dewpoint Dewpoint Depression Visibility Wind Speed Wind Dir Waves Ship Positions

Circle Line Brooklyn

Owner: Circle Line Sight Seeing Yachts Inc., New York, NY. More information available from US FCC via Universal Licensing System and Coast Guard Vessel Documentation Center.

Last reported at 2015-Aug-02 19:33 UTC. Time now 2015-Aug-02 20:27 UTC.
Position N 40°46' W 074°00'.

MMSI: 367402250.

Date/timePositionNaut miles runAvg speedWind from/ knotsBaromVisibWave heightAir tempDewpointWater temp
2015-Aug-02 19:33N 40°46' W 074°00'0 0.4
2015-Aug-02 18:33N 40°46' W 074°01'5 4.7
2015-Aug-02 17:33N 40°41' W 074°03'5 4.8
2015-Aug-02 16:32N 40°46' W 074°00'0 0.0
2015-Aug-02 04:04N 40°46' W 074°00'0 0.7
2015-Aug-02 03:33N 40°46' W 074°01'2 2.4
2015-Aug-02 02:34N 40°45' W 073°58'3 2.8
2015-Aug-02 01:33N 40°44' W 074°01'2 1.6
2015-Aug-02 00:31N 40°46' W 074°00'0 0.0
2015-Aug-01 23:31N 40°46' W 074°00'0 0.0
2015-Aug-01 22:31N 40°46' W 074°00'0 0.0
2015-Aug-01 21:31N 40°46' W 074°00'2 2.3
2015-Aug-01 20:33N 40°44' W 073°58'2 2.2
2015-Aug-01 19:34N 40°46' W 074°00'2 1.6
2015-Aug-01 18:33N 40°44' W 074°01'3 3.1
2015-Aug-01 17:34N 40°41' W 074°02'5 4.6
2015-Aug-01 16:31N 40°46' W 074°00'1 0.1
2015-Aug-01 03:33N 40°44' W 074°01'3 2.9
2015-Aug-01 02:33N 40°45' W 073°57'4 3.7
2015-Aug-01 01:33N 40°43' W 074°01'3 2.7
2015-Aug-01 00:32N 40°46' W 074°00'0 0.0
2015-Jul-31 23:32N 40°46' W 074°00'0 0.0
2015-Jul-31 22:32N 40°46' W 074°00'0 0.0
2015-Jul-31 21:32N 40°46' W 074°00'0 0.0
2015-Jul-31 20:33N 40°46' W 074°00'2 1.5
2015-Jul-31 19:08N 40°45' W 073°57'610.1
2015-Jul-31 18:33N 40°41' W 074°03'5 5.0
2015-Jul-31 17:33N 40°46' W 074°00'0 0.0
2015-Jul-31 16:33N 40°46' W 074°00'2 1.6
2015-Jul-31 15:13N 40°45' W 073°57'5 8.3
2015-Jul-31 14:33N 40°41' W 074°02'5 4.5
2015-Jul-31 13:31N 40°46' W 074°00'3 0.2
2015-Jul-31 00:33N 40°43' W 074°01'2 2.3
2015-Jul-30 23:33N 40°42' W 073°59'4 3.5
2015-Jul-30 22:33N 40°46' W 074°00'0 0.0
2015-Jul-30 21:33N 40°46' W 074°00'3 3.3
2015-Jul-30 20:33N 40°43' W 073°59'3 3.4
2015-Jul-30 19:34N 40°46' W 074°00'0 0.0
2015-Jul-30 18:33N 40°46' W 074°00'5 5.1
2015-Jul-30 17:33N 40°41' W 074°02'5 5.1
2015-Jul-30 16:33N 40°46' W 074°00'0 0.0
2015-Jul-30 15:33N 40°46' W 074°00'1 0.0
2015-Jul-28 19:33N 40°45' W 074°01'1 0.7
2015-Jul-28 18:28N 40°46' W 074°00'0 0.0
2015-Jul-28 17:31N 40°46' W 074°00'1 0.6
2015-Jul-28 16:33N 40°45' W 074°01'4 4.3
2015-Jul-28 15:33N 40°41' W 074°02'5 4.8
2015-Jul-28 14:33N 40°46' W 074°00'0 0.0
2015-Jul-27 20:28N 40°46' W 074°00'3 2.5
2015-Jul-27 19:11N 40°47' W 073°56'812.2
2015-Jul-27 18:33N 40°41' W 074°02'5 4.7
2015-Jul-27 17:30N 40°46' W 074°00'0 0.0
2015-Jul-27 16:33N 40°46' W 074°00'3 2.0
2015-Jul-27 15:14N 40°46' W 073°57'710.1
2015-Jul-27 14:33N 40°41' W 074°02'5 4.8
2015-Jul-27 13:32N 40°46' W 074°00'2 0.2
2015-Jul-27 00:33N 40°44' W 074°01'2 2.1
2015-Jul-26 23:33N 40°42' W 073°59'3 3.3
2015-Jul-26 22:31N 40°46' W 074°00'0 0.0
2015-Jul-26 21:31N 40°46' W 074°00'3 3.2
2015-Jul-26 20:33N 40°43' W 073°58'3 3.1
2015-Jul-26 19:34N 40°46' W 074°00'0 0.0
2015-Jul-26 18:33N 40°46' W 074°00'5 4.8
2015-Jul-26 17:33N 40°41' W 074°02'5 4.7
2015-Jul-26 16:33N 40°46' W 074°00'0 0.0
2015-Jul-26 15:33N 40°46' W 074°00'0 0.0
2015-Jul-26 02:14N 40°46' W 074°00'1 2.0
2015-Jul-26 01:33N 40°45' W 074°01'5 4.7
2015-Jul-26 00:31N 40°47' W 073°55'2 2.0
2015-Jul-25 23:28N 40°45' W 073°57'3 3.8
2015-Jul-25 22:33N 40°44' W 074°01'2 1.9
2015-Jul-25 21:33N 40°46' W 074°00'0 0.0
2015-Jul-25 20:33N 40°46' W 074°00'0 0.0
2015-Jul-25 19:33N 40°46' W 074°00'0 0.0
2015-Jul-25 18:33N 40°46' W 074°00'1 1.5
2015-Jul-25 17:33N 40°44' W 074°01'2 2.4
2015-Jul-25 16:34N 40°42' W 073°59'3 3.4
2015-Jul-25 15:32N 40°46' W 074°00'0 0.0
2015-Jul-25 14:32N 40°46' W 074°00'1 0.1
2015-Jul-24 19:33N 40°45' W 074°01'1 1.2
2015-Jul-24 18:33N 40°46' W 074°00'0 0.0
2015-Jul-24 17:33N 40°46' W 074°00'2 1.6
2015-Jul-24 16:34N 40°44' W 074°01'3 3.4
2015-Jul-24 15:33N 40°41' W 074°03'5 4.7
2015-Jul-24 14:31N 40°46' W 074°00'3 0.2
2015-Jul-24 00:33N 40°43' W 074°02'2 2.2
2015-Jul-23 23:33N 40°42' W 073°59'4 3.5
2015-Jul-23 22:33N 40°46' W 074°00'0 0.0
2015-Jul-23 21:33N 40°46' W 074°00'3 3.2
2015-Jul-23 20:33N 40°43' W 073°58'3 3.2
2015-Jul-23 19:33N 40°46' W 074°00'  
Track history (hours):
 
Tides and Currents Weather Stations Pressure Air Temp Water Temp Dewpoint Dewpoint Depression Visibility Wind Speed Wind Dir Waves Ship Positions

Circle Line Brooklyn

Owner: Circle Line Sight Seeing Yachts Inc., New York, NY. More information available from US FCC via Universal Licensing System and Coast Guard Vessel Documentation Center.

Last reported at 2015-Aug-02 19:33 UTC. Time now 2015-Aug-02 20:27 UTC.
Position N 40°46' W 074°00'.

MMSI: 367402250.

Date/timePositionNaut miles runAvg speedWind from/ knotsBaromVisibWave heightAir tempDewpointWater temp
2015-Aug-02 19:33N 40°46' W 074°00'0 0.4
2015-Aug-02 18:33N 40°46' W 074°01'5 4.7
2015-Aug-02 17:33N 40°41' W 074°03'5 4.8
2015-Aug-02 16:32N 40°46' W 074°00'0 0.0
2015-Aug-02 04:04N 40°46' W 074°00'0 0.7
2015-Aug-02 03:33N 40°46' W 074°01'2 2.4
2015-Aug-02 02:34N 40°45' W 073°58'3 2.8
2015-Aug-02 01:33N 40°44' W 074°01'2 1.6
2015-Aug-02 00:31N 40°46' W 074°00'0 0.0
2015-Aug-01 23:31N 40°46' W 074°00'0 0.0
2015-Aug-01 22:31N 40°46' W 074°00'0 0.0
2015-Aug-01 21:31N 40°46' W 074°00'2 2.3
2015-Aug-01 20:33N 40°44' W 073°58'2 2.2
2015-Aug-01 19:34N 40°46' W 074°00'2 1.6
2015-Aug-01 18:33N 40°44' W 074°01'3 3.1
2015-Aug-01 17:34N 40°41' W 074°02'5 4.6
2015-Aug-01 16:31N 40°46' W 074°00'1 0.1
2015-Aug-01 03:33N 40°44' W 074°01'3 2.9
2015-Aug-01 02:33N 40°45' W 073°57'4 3.7
2015-Aug-01 01:33N 40°43' W 074°01'3 2.7
2015-Aug-01 00:32N 40°46' W 074°00'0 0.0
2015-Jul-31 23:32N 40°46' W 074°00'0 0.0
2015-Jul-31 22:32N 40°46' W 074°00'0 0.0
2015-Jul-31 21:32N 40°46' W 074°00'0 0.0
2015-Jul-31 20:33N 40°46' W 074°00'2 1.5
2015-Jul-31 19:08N 40°45' W 073°57'610.1
2015-Jul-31 18:33N 40°41' W 074°03'5 5.0
2015-Jul-31 17:33N 40°46' W 074°00'0 0.0
2015-Jul-31 16:33N 40°46' W 074°00'2 1.6
2015-Jul-31 15:13N 40°45' W 073°57'5 8.3
2015-Jul-31 14:33N 40°41' W 074°02'5 4.5
2015-Jul-31 13:31N 40°46' W 074°00'3 0.2
2015-Jul-31 00:33N 40°43' W 074°01'2 2.3
2015-Jul-30 23:33N 40°42' W 073°59'4 3.5
2015-Jul-30 22:33N 40°46' W 074°00'0 0.0
2015-Jul-30 21:33N 40°46' W 074°00'3 3.3
2015-Jul-30 20:33N 40°43' W 073°59'3 3.4
2015-Jul-30 19:34N 40°46' W 074°00'0 0.0
2015-Jul-30 18:33N 40°46' W 074°00'5 5.1
2015-Jul-30 17:33N 40°41' W 074°02'5 5.1
2015-Jul-30 16:33N 40°46' W 074°00'0 0.0
2015-Jul-30 15:33N 40°46' W 074°00'1 0.0
2015-Jul-28 19:33N 40°45' W 074°01'1 0.7
2015-Jul-28 18:28N 40°46' W 074°00'0 0.0
2015-Jul-28 17:31N 40°46' W 074°00'1 0.6
2015-Jul-28 16:33N 40°45' W 074°01'4 4.3
2015-Jul-28 15:33N 40°41' W 074°02'5 4.8
2015-Jul-28 14:33N 40°46' W 074°00'0 0.0
2015-Jul-27 20:28N 40°46' W 074°00'3 2.5
2015-Jul-27 19:11N 40°47' W 073°56'812.2
2015-Jul-27 18:33N 40°41' W 074°02'5 4.7
2015-Jul-27 17:30N 40°46' W 074°00'0 0.0
2015-Jul-27 16:33N 40°46' W 074°00'3 2.0
2015-Jul-27 15:14N 40°46' W 073°57'710.1
2015-Jul-27 14:33N 40°41' W 074°02'5 4.8
2015-Jul-27 13:32N 40°46' W 074°00'2 0.2
2015-Jul-27 00:33N 40°44' W 074°01'2 2.1
2015-Jul-26 23:33N 40°42' W 073°59'3 3.3
2015-Jul-26 22:31N 40°46' W 074°00'0 0.0
2015-Jul-26 21:31N 40°46' W 074°00'3 3.2
2015-Jul-26 20:33N 40°43' W 073°58'3 3.1
2015-Jul-26 19:34N 40°46' W 074°00'0 0.0
2015-Jul-26 18:33N 40°46' W 074°00'5 4.8
2015-Jul-26 17:33N 40°41' W 074°02'5 4.7
2015-Jul-26 16:33N 40°46' W 074°00'0 0.0
2015-Jul-26 15:33N 40°46' W 074°00'0 0.0
2015-Jul-26 02:14N 40°46' W 074°00'1 2.0
2015-Jul-26 01:33N 40°45' W 074°01'5 4.7
2015-Jul-26 00:31N 40°47' W 073°55'2 2.0
2015-Jul-25 23:28N 40°45' W 073°57'3 3.8
2015-Jul-25 22:33N 40°44' W 074°01'2 1.9
2015-Jul-25 21:33N 40°46' W 074°00'0 0.0
2015-Jul-25 20:33N 40°46' W 074°00'0 0.0
2015-Jul-25 19:33N 40°46' W 074°00'0 0.0
2015-Jul-25 18:33N 40°46' W 074°00'1 1.5
2015-Jul-25 17:33N 40°44' W 074°01'2 2.4
2015-Jul-25 16:34N 40°42' W 073°59'3 3.4
2015-Jul-25 15:32N 40°46' W 074°00'0 0.0
2015-Jul-25 14:32N 40°46' W 074°00'1 0.1
2015-Jul-24 19:33N 40°45' W 074°01'1 1.2
2015-Jul-24 18:33N 40°46' W 074°00'0 0.0
2015-Jul-24 17:33N 40°46' W 074°00'2 1.6
2015-Jul-24 16:34N 40°44' W 074°01'3 3.4
2015-Jul-24 15:33N 40°41' W 074°03'5 4.7
2015-Jul-24 14:31N 40°46' W 074°00'3 0.2
2015-Jul-24 00:33N 40°43' W 074°02'2 2.2
2015-Jul-23 23:33N 40°42' W 073°59'4 3.5
2015-Jul-23 22:33N 40°46' W 074°00'0 0.0
2015-Jul-23 21:33N 40°46' W 074°00'3 3.2
2015-Jul-23 20:33N 40°43' W 073°58'3 3.2
2015-Jul-23 19:33N 40°46' W 074°00'  

Dump ship's entire track history